sensor_id;sensor_type;location;lat;lon;timestamp;temperature;humidity
29431;DHT22;16404;49.902;10.074;2023-10-09T00:02:25;16.50;53.60
29431;DHT22;16404;49.902;10.074;2023-10-09T00:05:10;16.50;53.70
29431;DHT22;16404;49.902;10.074;2023-10-09T00:08:03;16.50;53.60
29431;DHT22;16404;49.902;10.074;2023-10-09T00:10:48;16.60;53.60
29431;DHT22;16404;49.902;10.074;2023-10-09T00:13:53;16.60;53.70
29431;DHT22;16404;49.902;10.074;2023-10-09T00:16:41;16.50;53.70
29431;DHT22;16404;49.902;10.074;2023-10-09T00:19:40;16.50;53.70
29431;DHT22;16404;49.902;10.074;2023-10-09T00:22:27;16.50;53.70
29431;DHT22;16404;49.902;10.074;2023-10-09T00:25:13;16.50;53.70
29431;DHT22;16404;49.902;10.074;2023-10-09T00:28:14;16.50;53.70
29431;DHT22;16404;49.902;10.074;2023-10-09T00:30:59;16.60;53.70
29431;DHT22;16404;49.902;10.074;2023-10-09T00:33:43;16.50;53.60
29431;DHT22;16404;49.902;10.074;2023-10-09T00:36:27;16.60;53.60
29431;DHT22;16404;49.902;10.074;2023-10-09T00:39:13;16.60;53.60
29431;DHT22;16404;49.902;10.074;2023-10-09T00:42:03;16.60;53.70
29431;DHT22;16404;49.902;10.074;2023-10-09T00:44:50;16.60;53.70
29431;DHT22;16404;49.902;10.074;2023-10-09T00:47:34;16.60;53.70
29431;DHT22;16404;49.902;10.074;2023-10-09T00:50:19;16.60;53.70
29431;DHT22;16404;49.902;10.074;2023-10-09T00:53:03;16.60;53.60
29431;DHT22;16404;49.902;10.074;2023-10-09T00:55:55;16.60;53.60
29431;DHT22;16404;49.902;10.074;2023-10-09T00:58:48;16.60;53.60
29431;DHT22;16404;49.902;10.074;2023-10-09T01:01:39;16.60;53.60
29431;DHT22;16404;49.902;10.074;2023-10-09T01:04:24;16.60;53.60
29431;DHT22;16404;49.902;10.074;2023-10-09T01:07:10;16.60;53.60
29431;DHT22;16404;49.902;10.074;2023-10-09T01:10:09;16.60;53.70
29431;DHT22;16404;49.902;10.074;2023-10-09T01:12:55;16.60;53.70
29431;DHT22;16404;49.902;10.074;2023-10-09T01:15:40;16.60;53.70
29431;DHT22;16404;49.902;10.074;2023-10-09T01:18:28;16.60;53.70
29431;DHT22;16404;49.902;10.074;2023-10-09T01:21:20;16.60;53.70
29431;DHT22;16404;49.902;10.074;2023-10-09T01:24:08;16.60;53.70
29431;DHT22;16404;49.902;10.074;2023-10-09T01:26:52;16.60;53.70
29431;DHT22;16404;49.902;10.074;2023-10-09T01:29:38;16.70;53.70
29431;DHT22;16404;49.902;10.074;2023-10-09T01:32:26;16.70;53.70
29431;DHT22;16404;49.902;10.074;2023-10-09T01:35:11;16.60;53.60
29431;DHT22;16404;49.902;10.074;2023-10-09T01:38:05;16.60;53.60
29431;DHT22;16404;49.902;10.074;2023-10-09T01:40:57;16.70;53.70
29431;DHT22;16404;49.902;10.074;2023-10-09T01:43:49;16.70;53.70
29431;DHT22;16404;49.902;10.074;2023-10-09T01:46:36;16.60;53.70
29431;DHT22;16404;49.902;10.074;2023-10-09T01:49:20;16.70;53.70
29431;DHT22;16404;49.902;10.074;2023-10-09T01:52:14;16.60;53.60
29431;DHT22;16404;49.902;10.074;2023-10-09T01:55:01;16.50;53.80
29431;DHT22;16404;49.902;10.074;2023-10-09T01:57:59;16.50;54.00
29431;DHT22;16404;49.902;10.074;2023-10-09T02:00:50;16.40;54.00
29431;DHT22;16404;49.902;10.074;2023-10-09T02:03:40;16.50;54.00
29431;DHT22;16404;49.902;10.074;2023-10-09T02:06:26;16.40;54.00
29431;DHT22;16404;49.902;10.074;2023-10-09T02:09:16;16.50;54.00
29431;DHT22;16404;49.902;10.074;2023-10-09T02:12:06;16.50;53.90
29431;DHT22;16404;49.902;10.074;2023-10-09T02:14:51;16.50;53.80
29431;DHT22;16404;49.902;10.074;2023-10-09T02:17:37;16.40;53.80
29431;DHT22;16404;49.902;10.074;2023-10-09T02:20:36;16.40;53.90
29431;DHT22;16404;49.902;10.074;2023-10-09T02:23:22;16.40;54.00
29431;DHT22;16404;49.902;10.074;2023-10-09T02:26:13;16.40;53.90
29431;DHT22;16404;49.902;10.074;2023-10-09T02:29:10;16.30;53.90
29431;DHT22;16404;49.902;10.074;2023-10-09T02:32:04;16.30;53.90
29431;DHT22;16404;49.902;10.074;2023-10-09T02:34:58;16.20;54.00
29431;DHT22;16404;49.902;10.074;2023-10-09T02:37:52;16.20;54.00
29431;DHT22;16404;49.902;10.074;2023-10-09T02:40:37;16.20;54.10
29431;DHT22;16404;49.902;10.074;2023-10-09T02:43:34;16.10;54.10
29431;DHT22;16404;49.902;10.074;2023-10-09T02:46:28;16.10;54.10
29431;DHT22;16404;49.902;10.074;2023-10-09T02:49:16;16.10;54.10
29431;DHT22;16404;49.902;10.074;2023-10-09T02:52:01;16.00;54.00
29431;DHT22;16404;49.902;10.074;2023-10-09T02:54:51;16.00;54.00
29431;DHT22;16404;49.902;10.074;2023-10-09T02:57:43;15.90;54.10
29431;DHT22;16404;49.902;10.074;2023-10-09T03:00:29;15.90;54.10
29431;DHT22;16404;49.902;10.074;2023-10-09T03:03:15;15.90;54.00
29431;DHT22;16404;49.902;10.074;2023-10-09T03:06:03;15.80;54.00
29431;DHT22;16404;49.902;10.074;2023-10-09T03:08:54;15.70;54.10
29431;DHT22;16404;49.902;10.074;2023-10-09T03:11:38;15.70;54.10
29431;DHT22;16404;49.902;10.074;2023-10-09T03:14:24;15.60;54.10
29431;DHT22;16404;49.902;10.074;2023-10-09T03:17:13;15.60;54.10
29431;DHT22;16404;49.902;10.074;2023-10-09T03:19:57;15.60;54.10
29431;DHT22;16404;49.902;10.074;2023-10-09T03:22:43;15.60;54.00
29431;DHT22;16404;49.902;10.074;2023-10-09T03:25:29;15.50;54.00
29431;DHT22;16404;49.902;10.074;2023-10-09T03:28:13;15.50;54.00
29431;DHT22;16404;49.902;10.074;2023-10-09T03:30:59;15.50;54.00
29431;DHT22;16404;49.902;10.074;2023-10-09T03:33:47;15.40;54.00
29431;DHT22;16404;49.902;10.074;2023-10-09T03:36:31;15.30;54.00
29431;DHT22;16404;49.902;10.074;2023-10-09T03:39:21;15.30;54.10
29431;DHT22;16404;49.902;10.074;2023-10-09T03:42:18;15.20;54.20
29431;DHT22;16404;49.902;10.074;2023-10-09T03:45:07;15.20;54.20
29431;DHT22;16404;49.902;10.074;2023-10-09T03:48:02;15.10;54.50
29431;DHT22;16404;49.902;10.074;2023-10-09T03:50:53;15.10;54.20
29431;DHT22;16404;49.902;10.074;2023-10-09T03:53:52;15.10;54.20
29431;DHT22;16404;49.902;10.074;2023-10-09T03:56:37;15.00;54.10
29431;DHT22;16404;49.902;10.074;2023-10-09T03:59:21;15.00;54.10
29431;DHT22;16404;49.902;10.074;2023-10-09T04:02:05;15.00;54.20
29431;DHT22;16404;49.902;10.074;2023-10-09T04:04:49;14.90;54.20
29431;DHT22;16404;49.902;10.074;2023-10-09T04:07:34;14.90;54.30
29431;DHT22;16404;49.902;10.074;2023-10-09T04:10:19;14.90;54.30
29431;DHT22;16404;49.902;10.074;2023-10-09T04:13:23;14.80;54.30
29431;DHT22;16404;49.902;10.074;2023-10-09T04:16:07;14.80;54.20
29431;DHT22;16404;49.902;10.074;2023-10-09T04:19:14;14.80;54.30
29431;DHT22;16404;49.902;10.074;2023-10-09T04:21:59;14.80;54.30
29431;DHT22;16404;49.902;10.074;2023-10-09T04:24:50;14.80;54.20
29431;DHT22;16404;49.902;10.074;2023-10-09T04:27:35;14.80;54.30
29431;DHT22;16404;49.902;10.074;2023-10-09T04:30:21;14.80;54.30
29431;DHT22;16404;49.902;10.074;2023-10-09T04:33:07;14.80;54.40
29431;DHT22;16404;49.902;10.074;2023-10-09T04:36:01;14.80;54.50
29431;DHT22;16404;49.902;10.074;2023-10-09T04:39:03;14.80;54.60
29431;DHT22;16404;49.902;10.074;2023-10-09T04:41:47;14.70;54.60
29431;DHT22;16404;49.902;10.074;2023-10-09T04:44:32;14.80;54.60
29431;DHT22;16404;49.902;10.074;2023-10-09T04:47:20;14.80;54.60
29431;DHT22;16404;49.902;10.074;2023-10-09T04:50:09;14.80;54.50
29431;DHT22;16404;49.902;10.074;2023-10-09T04:53:02;14.90;54.50
29431;DHT22;16404;49.902;10.074;2023-10-09T04:56:16;14.80;54.40
29431;DHT22;16404;49.902;10.074;2023-10-09T04:59:00;14.80;54.50
29431;DHT22;16404;49.902;10.074;2023-10-09T05:01:47;14.80;54.60
29431;DHT22;16404;49.902;10.074;2023-10-09T05:04:42;14.70;54.50
29431;DHT22;16404;49.902;10.074;2023-10-09T05:07:27;14.70;54.60
29431;DHT22;16404;49.902;10.074;2023-10-09T05:10:31;14.70;54.70
29431;DHT22;16404;49.902;10.074;2023-10-09T05:13:16;14.70;54.60
29431;DHT22;16404;49.902;10.074;2023-10-09T05:16:20;14.70;54.70
29431;DHT22;16404;49.902;10.074;2023-10-09T05:19:12;14.60;54.90
29431;DHT22;16404;49.902;10.074;2023-10-09T05:22:13;14.50;55.00
29431;DHT22;16404;49.902;10.074;2023-10-09T05:25:13;14.60;55.10
29431;DHT22;16404;49.902;10.074;2023-10-09T05:28:21;14.60;55.00
29431;DHT22;16404;49.902;10.074;2023-10-09T05:31:24;14.60;55.00
29431;DHT22;16404;49.902;10.074;2023-10-09T05:34:37;14.60;55.10
29431;DHT22;16404;49.902;10.074;2023-10-09T05:37:42;14.60;55.20
29431;DHT22;16404;49.902;10.074;2023-10-09T05:40:30;14.60;55.20
29431;DHT22;16404;49.902;10.074;2023-10-09T05:43:20;14.70;55.10
29431;DHT22;16404;49.902;10.074;2023-10-09T05:46:23;14.60;55.10
29431;DHT22;16404;49.902;10.074;2023-10-09T05:49:19;14.60;55.20
29431;DHT22;16404;49.902;10.074;2023-10-09T05:52:03;14.70;55.20
29431;DHT22;16404;49.902;10.074;2023-10-09T05:55:08;14.70;55.10
29431;DHT22;16404;49.902;10.074;2023-10-09T05:58:10;14.70;55.10
29431;DHT22;16404;49.902;10.074;2023-10-09T06:01:13;14.70;55.10
29431;DHT22;16404;49.902;10.074;2023-10-09T06:04:17;14.80;55.00
29431;DHT22;16404;49.902;10.074;2023-10-09T06:07:02;14.90;55.00
29431;DHT22;16404;49.902;10.074;2023-10-09T06:09:57;14.90;55.00
29431;DHT22;16404;49.902;10.074;2023-10-09T06:12:41;15.00;55.00
29431;DHT22;16404;49.902;10.074;2023-10-09T06:15:28;15.00;55.00
29431;DHT22;16404;49.902;10.074;2023-10-09T06:18:35;15.10;55.00
29431;DHT22;16404;49.902;10.074;2023-10-09T06:21:19;15.10;54.90
29431;DHT22;16404;49.902;10.074;2023-10-09T06:24:22;15.20;54.90
29431;DHT22;16404;49.902;10.074;2023-10-09T06:27:11;15.20;54.90
29431;DHT22;16404;49.902;10.074;2023-10-09T06:29:55;15.20;54.90
29431;DHT22;16404;49.902;10.074;2023-10-09T06:33:08;15.30;54.90
29431;DHT22;16404;49.902;10.074;2023-10-09T06:36:13;15.40;54.90
29431;DHT22;16404;49.902;10.074;2023-10-09T06:39:01;15.50;54.80
29431;DHT22;16404;49.902;10.074;2023-10-09T06:42:04;15.60;54.80
29431;DHT22;16404;49.902;10.074;2023-10-09T06:45:15;15.70;54.80
29431;DHT22;16404;49.902;10.074;2023-10-09T06:48:03;15.80;54.70
29431;DHT22;16404;49.902;10.074;2023-10-09T06:51:07;15.90;54.70
29431;DHT22;16404;49.902;10.074;2023-10-09T06:53:56;16.00;54.70
29431;DHT22;16404;49.902;10.074;2023-10-09T06:56:41;16.00;54.60
29431;DHT22;16404;49.902;10.074;2023-10-09T06:59:37;16.20;54.70
29431;DHT22;16404;49.902;10.074;2023-10-09T07:02:47;16.30;54.60
29431;DHT22;16404;49.902;10.074;2023-10-09T07:05:31;16.40;54.60
29431;DHT22;16404;49.902;10.074;2023-10-09T07:08:32;16.50;54.60
29431;DHT22;16404;49.902;10.074;2023-10-09T07:11:21;16.60;54.80
29431;DHT22;16404;49.902;10.074;2023-10-09T07:14:09;16.60;54.90
29431;DHT22;16404;49.902;10.074;2023-10-09T07:17:13;16.80;55.00
29431;DHT22;16404;49.902;10.074;2023-10-09T07:20:06;17.00;54.80
29431;DHT22;16404;49.902;10.074;2023-10-09T07:23:09;17.20;54.70
29431;DHT22;16404;49.902;10.074;2023-10-09T07:26:03;17.40;54.70
29431;DHT22;16404;49.902;10.074;2023-10-09T07:29:03;17.50;54.70
29431;DHT22;16404;49.902;10.074;2023-10-09T07:32:00;17.60;54.60
29431;DHT22;16404;49.902;10.074;2023-10-09T07:34:56;17.80;54.70
29431;DHT22;16404;49.902;10.074;2023-10-09T07:37:44;17.90;54.70
29431;DHT22;16404;49.902;10.074;2023-10-09T07:40:35;18.00;54.60
29431;DHT22;16404;49.902;10.074;2023-10-09T07:43:38;18.10;54.50
29431;DHT22;16404;49.902;10.074;2023-10-09T07:46:23;18.30;54.50
29431;DHT22;16404;49.902;10.074;2023-10-09T07:49:16;18.40;54.50
29431;DHT22;16404;49.902;10.074;2023-10-09T07:52:08;18.50;54.50
29431;DHT22;16404;49.902;10.074;2023-10-09T07:54:52;18.60;54.50
29431;DHT22;16404;49.902;10.074;2023-10-09T07:57:46;18.60;54.50
29431;DHT22;16404;49.902;10.074;2023-10-09T08:00:36;18.70;54.50
29431;DHT22;16404;49.902;10.074;2023-10-09T08:03:20;18.70;54.70
29431;DHT22;16404;49.902;10.074;2023-10-09T08:06:08;18.70;54.70
29431;DHT22;16404;49.902;10.074;2023-10-09T08:09:11;18.80;54.90
29431;DHT22;16404;49.902;10.074;2023-10-09T08:11:58;18.90;54.80
29431;DHT22;16404;49.902;10.074;2023-10-09T08:14:58;19.00;54.70
29431;DHT22;16404;49.902;10.074;2023-10-09T08:18:01;19.20;54.80
29431;DHT22;16404;49.902;10.074;2023-10-09T08:20:54;19.30;54.70
29431;DHT22;16404;49.902;10.074;2023-10-09T08:23:41;19.40;54.70
29431;DHT22;16404;49.902;10.074;2023-10-09T08:26:36;19.40;54.70
29431;DHT22;16404;49.902;10.074;2023-10-09T08:29:31;19.50;54.70
29431;DHT22;16404;49.902;10.074;2023-10-09T08:32:18;19.60;54.60
29431;DHT22;16404;49.902;10.074;2023-10-09T08:35:02;19.70;54.70
29431;DHT22;16404;49.902;10.074;2023-10-09T08:37:50;19.70;54.70
29431;DHT22;16404;49.902;10.074;2023-10-09T08:40:35;19.80;54.80
29431;DHT22;16404;49.902;10.074;2023-10-09T08:43:26;19.80;54.90
29431;DHT22;16404;49.902;10.074;2023-10-09T08:46:14;19.90;54.90
29431;DHT22;16404;49.902;10.074;2023-10-09T08:49:02;19.90;54.90
29431;DHT22;16404;49.902;10.074;2023-10-09T08:51:52;20.00;54.90
29431;DHT22;16404;49.902;10.074;2023-10-09T08:54:36;20.00;54.80
29431;DHT22;16404;49.902;10.074;2023-10-09T08:57:21;20.20;54.80
29431;DHT22;16404;49.902;10.074;2023-10-09T09:00:06;20.20;54.90
29431;DHT22;16404;49.902;10.074;2023-10-09T09:02:54;20.30;54.90
29431;DHT22;16404;49.902;10.074;2023-10-09T09:05:38;20.30;54.90
29431;DHT22;16404;49.902;10.074;2023-10-09T09:08:23;20.30;54.90
29431;DHT22;16404;49.902;10.074;2023-10-09T09:11:13;20.40;55.00
29431;DHT22;16404;49.902;10.074;2023-10-09T09:14:14;20.40;55.10
29431;DHT22;16404;49.902;10.074;2023-10-09T09:17:03;20.40;55.20
29431;DHT22;16404;49.902;10.074;2023-10-09T09:19:48;20.40;55.20
29431;DHT22;16404;49.902;10.074;2023-10-09T09:22:36;20.40;55.30
29431;DHT22;16404;49.902;10.074;2023-10-09T09:25:39;20.40;55.40
29431;DHT22;16404;49.902;10.074;2023-10-09T09:28:24;20.40;55.40
29431;DHT22;16404;49.902;10.074;2023-10-09T09:31:10;20.50;55.50
29431;DHT22;16404;49.902;10.074;2023-10-09T09:33:57;20.50;55.40
29431;DHT22;16404;49.902;10.074;2023-10-09T09:36:51;20.50;55.40
29431;DHT22;16404;49.902;10.074;2023-10-09T09:39:39;20.50;55.50
29431;DHT22;16404;49.902;10.074;2023-10-09T09:42:27;20.60;55.40
29431;DHT22;16404;49.902;10.074;2023-10-09T09:45:11;20.70;55.30
29431;DHT22;16404;49.902;10.074;2023-10-09T09:47:56;20.80;55.40
29431;DHT22;16404;49.902;10.074;2023-10-09T09:50:42;20.80;55.40
29431;DHT22;16404;49.902;10.074;2023-10-09T09:53:30;20.80;55.50
29431;DHT22;16404;49.902;10.074;2023-10-09T09:56:18;20.90;55.50
29431;DHT22;16404;49.902;10.074;2023-10-09T09:59:05;21.00;55.50
29431;DHT22;16404;49.902;10.074;2023-10-09T10:01:51;21.10;55.40
29431;DHT22;16404;49.902;10.074;2023-10-09T10:04:42;21.20;55.20
29431;DHT22;16404;49.902;10.074;2023-10-09T10:07:28;21.30;55.30
29431;DHT22;16404;49.902;10.074;2023-10-09T10:10:33;21.40;55.20
29431;DHT22;16404;49.902;10.074;2023-10-09T10:13:17;21.50;55.30
29431;DHT22;16404;49.902;10.074;2023-10-09T10:16:16;21.50;55.20
29431;DHT22;16404;49.902;10.074;2023-10-09T10:19:04;21.60;55.20
29431;DHT22;16404;49.902;10.074;2023-10-09T10:22:24;21.70;55.20
29431;DHT22;16404;49.902;10.074;2023-10-09T10:28:23;21.80;55.20
29431;DHT22;16404;49.902;10.074;2023-10-09T10:31:31;21.90;55.20
29431;DHT22;16404;49.902;10.074;2023-10-09T10:34:51;22.00;55.10
29431;DHT22;16404;49.902;10.074;2023-10-09T10:37:38;22.00;55.10
29431;DHT22;16404;49.902;10.074;2023-10-09T10:40:35;21.90;55.40
29431;DHT22;16404;49.902;10.074;2023-10-09T10:43:23;21.80;56.30
29431;DHT22;16404;49.902;10.074;2023-10-09T10:46:22;21.60;56.10
29431;DHT22;16404;49.902;10.074;2023-10-09T10:49:21;21.70;56.40
29431;DHT22;16404;49.902;10.074;2023-10-09T10:52:05;21.60;56.30
29431;DHT22;16404;49.902;10.074;2023-10-09T10:55:11;21.60;56.50
29431;DHT22;16404;49.902;10.074;2023-10-09T10:58:17;21.60;56.60
29431;DHT22;16404;49.902;10.074;2023-10-09T11:01:07;21.60;56.70
29431;DHT22;16404;49.902;10.074;2023-10-09T11:03:59;21.60;56.60
29431;DHT22;16404;49.902;10.074;2023-10-09T11:06:59;21.70;56.50
29431;DHT22;16404;49.902;10.074;2023-10-09T11:10:04;21.80;56.50
29431;DHT22;16404;49.902;10.074;2023-10-09T11:12:48;21.80;56.50
29431;DHT22;16404;49.902;10.074;2023-10-09T11:15:36;21.80;56.60
29431;DHT22;16404;49.902;10.074;2023-10-09T11:18:30;21.80;56.60
29431;DHT22;16404;49.902;10.074;2023-10-09T11:21:26;21.70;56.60
29431;DHT22;16404;49.902;10.074;2023-10-09T11:24:26;21.80;56.60
29431;DHT22;16404;49.902;10.074;2023-10-09T11:27:10;21.90;56.50
29431;DHT22;16404;49.902;10.074;2023-10-09T11:30:02;22.00;56.40
29431;DHT22;16404;49.902;10.074;2023-10-09T11:33:06;22.10;56.10
29431;DHT22;16404;49.902;10.074;2023-10-09T11:35:58;22.10;56.10
29431;DHT22;16404;49.902;10.074;2023-10-09T11:38:42;22.10;56.00
29431;DHT22;16404;49.902;10.074;2023-10-09T11:41:33;22.10;55.90
29431;DHT22;16404;49.902;10.074;2023-10-09T11:44:35;22.20;55.90
29431;DHT22;16404;49.902;10.074;2023-10-09T11:47:19;22.20;55.80
29431;DHT22;16404;49.902;10.074;2023-10-09T11:50:03;22.30;55.80
29431;DHT22;16404;49.902;10.074;2023-10-09T11:52:57;22.30;55.80
29431;DHT22;16404;49.902;10.074;2023-10-09T11:55:52;22.40;55.80
29431;DHT22;16404;49.902;10.074;2023-10-09T11:58:37;22.40;55.70
29431;DHT22;16404;49.902;10.074;2023-10-09T12:01:24;22.50;55.70
29431;DHT22;16404;49.902;10.074;2023-10-09T12:04:10;22.60;55.70
29431;DHT22;16404;49.902;10.074;2023-10-09T12:06:57;22.60;55.50
29431;DHT22;16404;49.902;10.074;2023-10-09T12:09:54;22.70;55.60
29431;DHT22;16404;49.902;10.074;2023-10-09T12:12:40;22.70;55.60
29431;DHT22;16404;49.902;10.074;2023-10-09T12:15:31;22.70;55.70
29431;DHT22;16404;49.902;10.074;2023-10-09T12:18:21;22.70;55.70
29431;DHT22;16404;49.902;10.074;2023-10-09T12:21:08;22.70;55.70
29431;DHT22;16404;49.902;10.074;2023-10-09T12:23:52;22.70;55.70
29431;DHT22;16404;49.902;10.074;2023-10-09T12:26:41;22.70;55.70
29431;DHT22;16404;49.902;10.074;2023-10-09T12:29:26;22.70;55.70
29431;DHT22;16404;49.902;10.074;2023-10-09T12:32:17;22.80;55.70
29431;DHT22;16404;49.902;10.074;2023-10-09T12:35:05;22.80;55.70
29431;DHT22;16404;49.902;10.074;2023-10-09T12:38:01;22.90;55.60
29431;DHT22;16404;49.902;10.074;2023-10-09T12:40:45;23.00;55.60
29431;DHT22;16404;49.902;10.074;2023-10-09T12:43:35;23.00;55.50
29431;DHT22;16404;49.902;10.074;2023-10-09T12:46:23;23.10;55.50
29431;DHT22;16404;49.902;10.074;2023-10-09T12:49:07;23.00;55.50
29431;DHT22;16404;49.902;10.074;2023-10-09T12:51:51;23.00;55.60
29431;DHT22;16404;49.902;10.074;2023-10-09T12:54:36;23.00;55.60
29431;DHT22;16404;49.902;10.074;2023-10-09T12:57:20;23.00;55.70
29431;DHT22;16404;49.902;10.074;2023-10-09T13:00:05;23.00;55.70
29431;DHT22;16404;49.902;10.074;2023-10-09T13:02:55;23.00;55.70
29431;DHT22;16404;49.902;10.074;2023-10-09T13:05:39;23.10;55.70
29431;DHT22;16404;49.902;10.074;2023-10-09T13:08:36;23.10;55.60
29431;DHT22;16404;49.902;10.074;2023-10-09T13:11:20;23.10;55.50
29431;DHT22;16404;49.902;10.074;2023-10-09T13:14:09;23.20;55.50
29431;DHT22;16404;49.902;10.074;2023-10-09T13:17:06;23.30;55.40
29431;DHT22;16404;49.902;10.074;2023-10-09T13:19:54;23.30;55.40
29431;DHT22;16404;49.902;10.074;2023-10-09T13:22:40;23.30;55.40
29431;DHT22;16404;49.902;10.074;2023-10-09T13:25:30;23.30;55.50
29431;DHT22;16404;49.902;10.074;2023-10-09T13:28:23;23.30;55.40
29431;DHT22;16404;49.902;10.074;2023-10-09T13:31:08;23.40;55.30
29431;DHT22;16404;49.902;10.074;2023-10-09T13:33:55;23.50;55.20
29431;DHT22;16404;49.902;10.074;2023-10-09T13:36:40;23.60;55.10
29431;DHT22;16404;49.902;10.074;2023-10-09T13:39:25;23.60;55.00
29431;DHT22;16404;49.902;10.074;2023-10-09T13:42:10;23.60;55.00
29431;DHT22;16404;49.902;10.074;2023-10-09T13:44:55;23.60;55.00
29431;DHT22;16404;49.902;10.074;2023-10-09T13:47:39;23.70;55.00
29431;DHT22;16404;49.902;10.074;2023-10-09T13:50:24;23.70;54.90
29431;DHT22;16404;49.902;10.074;2023-10-09T13:53:12;23.70;54.90
29431;DHT22;16404;49.902;10.074;2023-10-09T13:55:58;23.70;54.80
29431;DHT22;16404;49.902;10.074;2023-10-09T13:58:52;23.80;54.80
29431;DHT22;16404;49.902;10.074;2023-10-09T14:01:39;24.00;54.70
29431;DHT22;16404;49.902;10.074;2023-10-09T14:04:23;24.10;54.60
29431;DHT22;16404;49.902;10.074;2023-10-09T14:07:07;24.10;54.50
29431;DHT22;16404;49.902;10.074;2023-10-09T14:09:52;24.20;54.50
29431;DHT22;16404;49.902;10.074;2023-10-09T14:12:39;24.30;54.40
29431;DHT22;16404;49.902;10.074;2023-10-09T14:15:26;24.40;54.30
29431;DHT22;16404;49.902;10.074;2023-10-09T14:18:10;24.40;54.20
29431;DHT22;16404;49.902;10.074;2023-10-09T14:20:55;24.40;54.20
29431;DHT22;16404;49.902;10.074;2023-10-09T14:23:40;24.50;54.20
29431;DHT22;16404;49.902;10.074;2023-10-09T14:26:26;24.50;54.30
29431;DHT22;16404;49.902;10.074;2023-10-09T14:29:11;24.50;54.10
29431;DHT22;16404;49.902;10.074;2023-10-09T14:32:01;24.60;54.10
29431;DHT22;16404;49.902;10.074;2023-10-09T14:34:45;24.60;54.00
29431;DHT22;16404;49.902;10.074;2023-10-09T14:37:38;24.60;54.00
29431;DHT22;16404;49.902;10.074;2023-10-09T14:40:23;24.60;53.90
29431;DHT22;16404;49.902;10.074;2023-10-09T14:43:16;24.60;53.80
29431;DHT22;16404;49.902;10.074;2023-10-09T14:46:04;24.70;53.80
29431;DHT22;16404;49.902;10.074;2023-10-09T14:48:55;24.70;53.70
29431;DHT22;16404;49.902;10.074;2023-10-09T14:51:39;24.70;53.60
29431;DHT22;16404;49.902;10.074;2023-10-09T14:54:24;24.70;53.60
29431;DHT22;16404;49.902;10.074;2023-10-09T14:57:09;24.70;53.60
29431;DHT22;16404;49.902;10.074;2023-10-09T14:59:55;24.70;53.60
29431;DHT22;16404;49.902;10.074;2023-10-09T15:02:40;24.70;53.70
29431;DHT22;16404;49.902;10.074;2023-10-09T15:05:24;24.70;53.70
29431;DHT22;16404;49.902;10.074;2023-10-09T15:08:09;24.60;53.70
29431;DHT22;16404;49.902;10.074;2023-10-09T15:10:56;24.60;53.70
29431;DHT22;16404;49.902;10.074;2023-10-09T15:13:40;24.60;53.70
29431;DHT22;16404;49.902;10.074;2023-10-09T15:16:24;24.60;53.70
29431;DHT22;16404;49.902;10.074;2023-10-09T15:19:10;24.60;53.70
29431;DHT22;16404;49.902;10.074;2023-10-09T15:21:55;24.60;53.80
29431;DHT22;16404;49.902;10.074;2023-10-09T15:24:39;24.50;53.80
29431;DHT22;16404;49.902;10.074;2023-10-09T15:27:25;24.50;53.80
29431;DHT22;16404;49.902;10.074;2023-10-09T15:30:09;24.50;53.80
29431;DHT22;16404;49.902;10.074;2023-10-09T15:32:57;24.40;53.70
29431;DHT22;16404;49.902;10.074;2023-10-09T15:35:45;24.40;53.70
29431;DHT22;16404;49.902;10.074;2023-10-09T15:38:33;24.40;53.70
29431;DHT22;16404;49.902;10.074;2023-10-09T15:41:18;24.30;53.70
29431;DHT22;16404;49.902;10.074;2023-10-09T15:44:05;24.30;53.80
29431;DHT22;16404;49.902;10.074;2023-10-09T15:46:50;24.20;53.70
29431;DHT22;16404;49.902;10.074;2023-10-09T15:49:35;24.20;53.70
29431;DHT22;16404;49.902;10.074;2023-10-09T15:52:25;24.20;53.80
29431;DHT22;16404;49.902;10.074;2023-10-09T15:55:11;24.10;53.70
29431;DHT22;16404;49.902;10.074;2023-10-09T15:57:59;24.10;53.90
29431;DHT22;16404;49.902;10.074;2023-10-09T16:00:43;24.00;53.90
29431;DHT22;16404;49.902;10.074;2023-10-09T16:03:28;23.90;53.90
29431;DHT22;16404;49.902;10.074;2023-10-09T16:06:12;23.90;53.90
29431;DHT22;16404;49.902;10.074;2023-10-09T16:08:56;23.80;54.00
29431;DHT22;16404;49.902;10.074;2023-10-09T16:11:41;23.80;54.00
29431;DHT22;16404;49.902;10.074;2023-10-09T16:14:25;23.70;54.00
29431;DHT22;16404;49.902;10.074;2023-10-09T16:17:09;23.70;54.00
29431;DHT22;16404;49.902;10.074;2023-10-09T16:19:53;23.60;54.00
29431;DHT22;16404;49.902;10.074;2023-10-09T16:22:42;23.60;54.10
29431;DHT22;16404;49.902;10.074;2023-10-09T16:25:32;23.50;54.00
29431;DHT22;16404;49.902;10.074;2023-10-09T16:28:20;23.50;54.10
29431;DHT22;16404;49.902;10.074;2023-10-09T16:31:04;23.40;54.00
29431;DHT22;16404;49.902;10.074;2023-10-09T16:33:51;23.30;54.00
29431;DHT22;16404;49.902;10.074;2023-10-09T16:36:35;23.20;54.00
29431;DHT22;16404;49.902;10.074;2023-10-09T16:39:19;23.20;54.10
29431;DHT22;16404;49.902;10.074;2023-10-09T16:42:06;23.10;54.10
29431;DHT22;16404;49.902;10.074;2023-10-09T16:44:53;23.00;54.20
29431;DHT22;16404;49.902;10.074;2023-10-09T16:47:39;23.00;54.30
29431;DHT22;16404;49.902;10.074;2023-10-09T16:50:24;22.90;54.30
29431;DHT22;16404;49.902;10.074;2023-10-09T16:53:12;22.80;54.40
29431;DHT22;16404;49.902;10.074;2023-10-09T16:55:56;22.80;54.40
29431;DHT22;16404;49.902;10.074;2023-10-09T16:58:41;22.70;54.40
29431;DHT22;16404;49.902;10.074;2023-10-09T17:01:25;22.60;54.40
29431;DHT22;16404;49.902;10.074;2023-10-09T17:04:11;22.60;54.50
29431;DHT22;16404;49.902;10.074;2023-10-09T17:07:00;22.50;54.40
29431;DHT22;16404;49.902;10.074;2023-10-09T17:09:48;22.50;54.40
29431;DHT22;16404;49.902;10.074;2023-10-09T17:12:33;22.50;54.40
29431;DHT22;16404;49.902;10.074;2023-10-09T17:15:17;22.40;54.40
29431;DHT22;16404;49.902;10.074;2023-10-09T17:18:02;22.40;54.30
29431;DHT22;16404;49.902;10.074;2023-10-09T17:20:46;22.30;54.30
29431;DHT22;16404;49.902;10.074;2023-10-09T17:23:32;22.30;54.40
29431;DHT22;16404;49.902;10.074;2023-10-09T17:26:17;22.10;54.50
29431;DHT22;16404;49.902;10.074;2023-10-09T17:29:07;22.00;54.60
29431;DHT22;16404;49.902;10.074;2023-10-09T17:31:54;21.90;54.70
29431;DHT22;16404;49.902;10.074;2023-10-09T17:34:38;21.80;54.90
29431;DHT22;16404;49.902;10.074;2023-10-09T17:37:23;21.70;55.00
29431;DHT22;16404;49.902;10.074;2023-10-09T17:40:08;21.60;55.10